WTTO2: Illinois River, Watts, OK

                                SHEF ID:       WTTO2     Illinois River near Watts, OK
STATION TYPE: Stream Gauge
Regulating: Stage = 13.00, Flow = 11165

PRECIP STAGE STAGE(2) RIV-FLOW WTR-TEMP VOLTAGE BAT-LOAD
in ft ft cfs F volt volt
Ccp-Rev Ccp-Rev Ccp-Rev Ccp-Rev Ccp-Rev Ccp-Rev Ccp-Rev
(America/Chicago)
04/27 00:00 0.00 6.82 ---- 2964 66.72 ---- 12.77
04/27 01:00 0.00 6.73 ---- 2872 66.69 ---- 12.74
04/27 02:00 0.00 6.63 ---- 2770 66.65 ---- 12.72
04/27 03:00 0.00 6.53 ---- 2669 66.58 ---- 12.70
04/27 04:00 0.00 6.44 ---- 2579 66.56 ---- 12.68
04/27 05:00 0.00 6.35 ---- 2491 66.54 ---- 12.67
04/27 06:00 0.00 6.27 ---- 2413 66.51 ---- 12.65
04/27 07:00 0.00 6.18 ---- 2327 66.51 ---- 12.63
04/27 08:00 0.00 6.10 ---- 2252 66.60 ---- 12.87
04/27 09:00 0.00 6.02 ---- 2178 66.74 ---- 13.54
04/27 10:00 0.00 5.95 ---- 2122 66.96 ---- 13.51
04/27 11:00 0.00 5.90 ---- 2085 67.35 ---- 13.43
04/27 12:00 0.00 5.51 ---- 1806 67.71 ---- 13.39
04/27 13:00 0.00 5.86 ---- 2055 68.32 ---- 13.65
04/27 14:00 0.00 5.73 ---- 1960 68.88 ---- 13.65
04/27 15:00 0.00 5.65 ---- 1903 69.55 ---- 13.52
04/27 16:00 0.00 5.58 ---- 1854 70.05 ---- 13.36
04/27 17:00 0.00 5.53 ---- 1820 70.36 ---- 13.32
04/27 18:00 0.00 5.49 ---- 1792 70.59 ---- 13.30
04/27 19:00 0.00 5.45 ---- 1765 70.57 ---- 13.30
04/27 20:00 0.00 5.41 ---- 1738 70.52 ---- 13.21
04/27 21:00 0.00 5.38 ---- 1718 70.34 ---- 12.99
04/27 22:00 0.00 5.34 ---- 1692 70.11 ---- 12.87
04/27 23:00 0.00 5.33 ---- 1685 70.02 ---- 12.80
Data processed at Tue 28Apr2026 04:35 GMT

NOTICE: If you are parsing this page

Please convert to using our Data API. Starting early 2026 we will be migrating to: https://water.usace.army.mil with modern pages rendered in JavaScript. When this migration completes you will no longer be able to scrape this page! CWMSDataAPI (CDA)

Timeseries IDs (TSIDs)

TSIDs used from left to right in the data table
WATT.Precip-Inc.Total.1Hour.1Hour.Ccp-Rev
WATT.Stage.Inst.1Hour.0.Ccp-Rev
WATT.Stage-Alt.Inst.1Hour.0.Ccp-Rev
WATT.Flow.Inst.1Hour.0.Ccp-Rev
WATT.Temp-Water.Inst.1Hour.0.Ccp-Rev
WATT.Volt-Battery.Inst.1Hour.0.Ccp-Rev
WATT.Volt-Battery Load.Inst.1Hour.0.Ccp-Rev

                            

All information presented herein is the property of the government of the United States of America and may be revised or deleted at any time without prior notice. Dissemination of this information without the expressed written consent of the Public Affairs Office, Tulsa District U.S. Army Corps of Engineers is strictly prohibited. These data are gathered electronically and, as presented, have NOT undergone any form of quality control. These data are NOT guaranteed to be valid or correct.